Time;durP1;ratioP1;P1;durP2;ratioP2;P2;SDS_P1;SDS_P2;PMS_P1;PMS_P2;Temp;Humidity;BMP_temperature;BMP_pressure;BME280_temperature;BME280_humidity;BME280_pressure;Samples;Min_cycle;Max_cycle;Signal;HPM_P1;HPM_P2
2023/01/14 00:45:48;;;;;;;3.58;0.93;;;7.10;99.90;;;;;;6265162;22;20069;-95
2023/01/14 00:48:13;;;;;;;5.22;0.50;;;7.10;99.90;;;;;;6203541;22;20016;-93
2023/01/14 02:06:14;;;;;;;6.05;0.88;;;7.20;99.90;;;;;;6315168;22;20438;-91
2023/01/14 02:25:38;;;;;;;10.07;0.70;;;7.20;99.90;;;;;;6277867;22;20020;-96
2023/01/14 02:28:10;;;;;;;4.90;0.50;;;7.20;99.90;;;;;;6227100;22;20023;-96
2023/01/14 02:30:45;;;;;;;4.75;0.60;;;7.20;99.90;;;;;;6229623;22;20051;-96
2023/01/14 02:33:40;;;;;;;6.35;0.90;;;7.20;99.90;;;;;;6234624;22;20012;-96
2023/01/14 02:36:17;;;;;;;8.23;1.33;;;7.10;99.90;;;;;;6235802;22;20019;-96
2023/01/14 02:38:54;;;;;;;5.90;0.90;;;7.10;99.90;;;;;;6227941;22;20016;-96
2023/01/14 02:44:39;;;;;;;5.72;0.80;;;7.10;99.90;;;;;;6237453;22;20020;-96
2023/01/14 02:47:18;;;;;;;5.25;0.50;;;7.00;99.90;;;;;;6228320;22;20015;-96
2023/01/14 02:49:48;;;;;;;5.13;0.70;;;7.00;99.90;;;;;;6226074;22;20102;-96
2023/01/14 02:52:14;;;;;;;6.57;0.52;;;7.00;99.90;;;;;;6225991;22;20023;-96
2023/01/14 02:54:40;;;;;;;11.27;2.40;;;6.90;99.90;;;;;;6225313;22;20022;-96
2023/01/14 02:57:33;;;;;;;8.37;1.40;;;6.90;99.90;;;;;;6200768;22;20114;-96
2023/01/14 03:00:06;;;;;;;5.13;0.80;;;6.90;99.90;;;;;;6225242;22;20038;-96
2023/01/14 03:02:57;;;;;;;5.60;1.23;;;6.90;99.90;;;;;;6225273;22;20011;-95
2023/01/14 03:05:32;;;;;;;5.00;0.88;;;6.90;99.90;;;;;;6225152;22;20069;-95
2023/01/14 03:08:28;;;;;;;4.55;0.90;;;6.90;99.90;;;;;;6225884;22;20016;-96
2023/01/14 03:11:03;;;;;;;3.55;0.43;;;6.80;99.90;;;;;;6225148;22;20012;-91
2023/01/14 03:13:47;;;;;;;8.77;1.15;;;6.80;99.90;;;;;;6224774;22;20047;-94
2023/01/14 03:16:23;;;;;;;5.30;0.82;;;6.80;99.90;;;;;;6225119;22;20023;-95
2023/01/14 03:19:20;;;;;;;7.78;1.17;;;6.80;99.90;;;;;;6224929;22;20015;-95
2023/01/14 03:21:52;;;;;;;7.30;1.08;;;6.80;99.90;;;;;;6174240;22;20457;-95
2023/01/14 03:24:29;;;;;;;3.83;0.90;;;6.90;99.90;;;;;;6225831;22;20016;-95
2023/01/14 03:26:59;;;;;;;5.47;0.63;;;6.90;99.90;;;;;;6226674;22;20062;-94
2023/01/14 03:29:34;;;;;;;7.20;0.88;;;6.90;99.90;;;;;;6203047;22;20506;-95
2023/01/14 03:32:07;;;;;;;3.78;0.68;;;6.80;99.90;;;;;;6226744;22;20027;-95
2023/01/14 03:34:38;;;;;;;4.25;0.93;;;6.90;99.90;;;;;;6226351;22;20073;-94
2023/01/14 03:37:09;;;;;;;4.45;0.68;;;6.90;99.90;;;;;;6227603;22;20110;-93
2023/01/14 03:39:35;;;;;;;4.43;0.80;;;6.90;99.90;;;;;;6227928;22;20026;-93
2023/01/14 03:42:18;;;;;;;5.70;0.70;;;6.90;99.90;;;;;;6202903;22;20012;-93
2023/01/14 03:44:52;;;;;;;8.93;0.77;;;6.90;99.90;;;;;;6227755;22;20019;-95
2023/01/14 03:47:19;;;;;;;6.43;1.08;;;6.90;99.90;;;;;;6227628;22;20019;-96
2023/01/14 03:49:44;;;;;;;7.93;0.95;;;6.90;99.90;;;;;;6226666;22;20016;-93
2023/01/14 03:52:20;;;;;;;3.43;0.57;;;6.90;99.90;;;;;;6201697;22;20019;-94
2023/01/14 03:54:59;;;;;;;6.25;1.02;;;6.80;99.90;;;;;;6226497;22;20016;-94
2023/01/14 03:57:52;;;;;;;2.70;0.47;;;6.80;99.90;;;;;;6226534;22;20073;-94
2023/01/14 04:00:23;;;;;;;5.47;0.70;;;6.80;99.90;;;;;;6226289;22;20341;-94
2023/01/14 04:02:51;;;;;;;8.85;1.40;;;6.80;99.90;;;;;;6226672;22;20061;-95
2023/01/14 04:05:17;;;;;;;3.22;0.68;;;6.80;99.90;;;;;;6226613;22;20019;-94
2023/01/14 04:07:46;;;;;;;6.38;1.20;;;6.70;99.90;;;;;;6226362;22;20022;-94
2023/01/14 04:10:11;;;;;;;2.97;0.68;;;6.70;99.90;;;;;;6226312;22;20020;-94
2023/01/14 04:15:20;;;;;;;4.03;0.73;;;6.70;99.90;;;;;;6226530;22;20069;-91
2023/01/14 04:15:23;;;;;;;6.22;0.60;;;6.60;99.90;;;;;;6251738;22;20047;-95
2023/01/14 04:17:48;;;;;;;6.10;0.90;;;6.60;99.90;;;;;;6226552;22;20016;-95
2023/01/14 04:20:17;;;;;;;9.20;0.90;;;6.60;99.90;;;;;;6226237;22;20377;-95
2023/01/14 04:22:43;;;;;;;3.95;0.75;;;6.60;99.90;;;;;;6227253;22;20016;-93
2023/01/14 04:25:09;;;;;;;7.27;1.00;;;6.60;99.90;;;;;;6208673;22;20026;-96
2023/01/14 04:27:34;;;;;;;3.93;0.70;;;6.60;99.90;;;;;;6226567;22;20023;-94
2023/01/14 04:30:00;;;;;;;6.70;0.60;;;6.60;99.90;;;;;;6226069;22;20015;-93
2023/01/14 04:32:26;;;;;;;5.47;0.83;;;6.60;99.90;;;;;;6226289;22;20023;-95
2023/01/14 04:34:51;;;;;;;3.30;0.97;;;6.60;99.90;;;;;;6226295;22;20012;-92
2023/01/14 04:37:17;;;;;;;4.00;0.77;;;6.60;99.90;;;;;;6225881;22;20019;-94
2023/01/14 04:39:43;;;;;;;6.10;0.70;;;6.50;99.90;;;;;;6225825;22;20047;-95
2023/01/14 04:42:27;;;;;;;7.10;1.00;;;6.50;99.90;;;;;;6251527;22;20011;-94
2023/01/14 04:45:02;;;;;;;3.53;0.60;;;6.50;99.90;;;;;;6230112;22;20016;-95
2023/01/14 04:47:29;;;;;;;4.10;0.45;;;6.50;99.90;;;;;;6251592;22;20054;-95
2023/01/14 04:49:55;;;;;;;;;;;6.50;99.90;;;;;;6226689;22;20015;-94
2023/01/14 04:52:23;;;;;;;6.60;0.70;;;6.40;99.90;;;;;;6251242;22;19918;-93
2023/01/14 04:54:52;;;;;;;3.83;0.73;;;6.40;99.90;;;;;;6251433;22;20019;-94
2023/01/14 04:57:18;;;;;;;5.13;0.80;;;6.40;99.90;;;;;;6225974;22;20011;-94
2023/01/14 04:59:44;;;;;;;5.25;0.63;;;6.50;99.90;;;;;;6251323;22;20020;-95
2023/01/14 05:02:10;;;;;;;7.60;1.37;;;6.40;99.90;;;;;;6251487;22;20381;-95
2023/01/14 05:04:35;;;;;;;2.50;0.63;;;6.40;99.90;;;;;;6251569;22;20051;-95
2023/01/14 05:07:02;;;;;;;6.03;0.90;;;6.30;99.90;;;;;;6226019;22;20011;-94
2023/01/14 05:09:29;;;;;;;5.43;0.80;;;6.30;99.90;;;;;;6226478;22;20011;-94
2023/01/14 05:11:55;;;;;;;2.50;0.32;;;6.30;99.90;;;;;;6226655;22;20020;-95
2023/01/14 05:14:21;;;;;;;4.07;0.60;;;6.30;99.90;;;;;;6251410;22;20102;-95
2023/01/14 05:16:47;;;;;;;2.13;0.73;;;6.30;99.90;;;;;;6226085;22;20258;-94
2023/01/14 05:19:13;;;;;;;6.03;0.87;;;6.30;99.90;;;;;;6251526;22;20023;-93
2023/01/14 05:21:38;;;;;;;3.60;0.40;;;6.20;99.90;;;;;;6251654;22;20016;-96
2023/01/14 05:24:04;;;;;;;4.53;0.73;;;6.20;99.90;;;;;;6226231;22;20074;-93
2023/01/14 05:26:30;;;;;;;6.33;0.90;;;6.20;99.90;;;;;;6250903;22;20012;-93
2023/01/14 05:28:56;;;;;;;4.30;0.73;;;6.20;99.90;;;;;;6225993;22;21653;-93
2023/01/14 05:31:22;;;;;;;4.97;0.50;;;6.20;99.90;;;;;;6276453;22;20019;-96
2023/01/14 05:33:47;;;;;;;9.07;0.60;;;6.10;99.90;;;;;;6251346;22;20094;-94
2023/01/14 05:36:13;;;;;;;4.20;0.70;;;6.20;99.90;;;;;;6225810;22;20480;-94
2023/01/14 05:38:39;;;;;;;4.87;0.67;;;6.10;99.90;;;;;;6225875;22;20456;-94
2023/01/14 05:41:04;;;;;;;4.30;0.53;;;6.10;99.90;;;;;;6225519;22;20478;-93
2023/01/14 05:46:17;;;;;;;3.60;0.68;;;6.10;99.90;;;;;;6255256;22;20459;-91
2023/01/14 05:48:43;;;;;;;3.67;0.60;;;6.10;99.90;;;;;;6251070;22;20070;-93
2023/01/14 05:51:12;;;;;;;7.53;0.70;;;6.10;99.90;;;;;;6250391;22;20016;-94
2023/01/14 05:53:38;;;;;;;7.45;0.88;;;6.10;99.90;;;;;;6250608;22;20012;-90
2023/01/14 05:56:04;;;;;;;3.03;0.87;;;6.10;99.90;;;;;;6250669;22;20145;-92
2023/01/14 05:58:33;;;;;;;5.88;0.95;;;6.10;99.90;;;;;;6225389;22;20165;-92
2023/01/14 06:06:43;;;;;;;5.60;0.98;;;6.20;99.90;;;;;;6276278;22;20020;-94
2023/01/14 06:09:11;;;;;;;4.68;1.27;;;6.20;99.90;;;;;;6250409;22;20073;-95
2023/01/14 06:11:41;;;;;;;7.25;0.90;;;6.10;99.90;;;;;;6250285;22;20031;-95
2023/01/14 06:14:07;;;;;;;6.65;0.68;;;6.10;99.90;;;;;;6250763;22;20019;-96
2023/01/14 06:16:43;;;;;;;3.55;0.90;;;6.20;99.90;;;;;;6225718;22;20443;-94
2023/01/14 06:19:13;;;;;;;7.00;0.82;;;6.20;99.90;;;;;;6276369;22;20076;-96
2023/01/14 06:21:40;;;;;;;4.18;0.82;;;6.20;99.90;;;;;;6251089;22;20012;-94
2023/01/14 06:24:06;;;;;;;2.05;0.50;;;6.10;99.90;;;;;;6251372;22;20098;-91
2023/01/14 06:26:34;;;;;;;7.45;0.70;;;6.10;99.90;;;;;;6225219;22;20453;-96
2023/01/14 06:29:02;;;;;;;4.95;0.80;;;6.10;99.90;;;;;;6252008;22;20019;-95
2023/01/14 06:31:28;;;;;;;5.38;0.85;;;6.10;99.90;;;;;;6224952;22;20015;-94
2023/01/14 06:33:55;;;;;;;4.32;1.00;;;6.10;99.90;;;;;;6225062;22;20012;-89
2023/01/14 06:36:21;;;;;;;;;;;6.10;99.90;;;;;;6226230;22;20030;-93
2023/01/14 06:38:47;;;;;;;5.55;0.82;;;6.10;99.90;;;;;;6224694;22;20313;-94
2023/01/14 06:41:13;;;;;;;4.97;0.90;;;6.10;99.90;;;;;;6225609;22;20319;-96
2023/01/14 06:43:44;;;;;;;4.47;1.17;;;6.10;99.90;;;;;;6224909;22;20539;-89
2023/01/14 06:46:12;;;;;;;5.75;0.90;;;6.10;99.90;;;;;;6250296;22;20047;-90
2023/01/14 06:48:39;;;;;;;6.97;1.00;;;6.10;99.90;;;;;;6224914;22;20008;-93
2023/01/14 06:51:07;;;;;;;4.20;0.85;;;6.10;99.90;;;;;;6224738;22;20046;-92
2023/01/14 06:53:33;;;;;;;5.88;1.10;;;6.10;99.90;;;;;;6225255;22;20066;-91
2023/01/14 06:56:04;;;;;;;7.10;1.33;;;6.10;99.90;;;;;;6224982;22;20012;-95
2023/01/14 06:58:30;;;;;;;8.50;1.33;;;6.10;99.90;;;;;;6224773;22;20015;-93
2023/01/14 07:00:57;;;;;;;8.03;1.63;;;6.10;99.90;;;;;;6224782;22;20437;-93
2023/01/14 07:03:23;;;;;;;5.45;1.25;;;6.10;99.90;;;;;;6251206;22;20262;-93
2023/01/14 07:05:49;;;;;;;6.30;1.50;;;6.10;99.90;;;;;;6226551;22;20138;-94
2023/01/14 07:08:15;;;;;;;9.10;1.53;;;6.10;99.90;;;;;;6226802;22;20027;-95
2023/01/14 07:10:40;;;;;;;10.50;2.23;;;6.10;99.90;;;;;;6226496;22;20023;-91
2023/01/14 07:13:06;;;;;;;9.70;1.50;;;6.10;99.90;;;;;;6226735;22;20337;-92
2023/01/14 07:15:33;;;;;;;6.03;1.83;;;6.10;99.90;;;;;;6226856;22;20016;-92
2023/01/14 07:17:59;;;;;;;9.25;2.10;;;6.10;99.90;;;;;;6177143;22;20069;-92
2023/01/14 07:20:25;;;;;;;10.00;1.90;;;6.00;99.90;;;;;;6201683;22;20388;-91
2023/01/14 07:22:50;;;;;;;6.57;1.87;;;6.00;99.90;;;;;;6226738;22;20011;-89
2023/01/14 07:25:16;;;;;;;7.97;1.30;;;6.00;99.90;;;;;;6261424;22;20445;-92
2023/01/14 07:27:42;;;;;;;6.30;1.75;;;6.10;99.90;;;;;;6252159;22;20098;-91
2023/01/14 07:30:09;;;;;;;7.50;1.43;;;6.10;99.90;;;;;;6251864;22;20124;-92
2023/01/14 07:32:34;;;;;;;9.48;1.70;;;6.10;99.90;;;;;;6226857;22;20379;-93
2023/01/14 07:35:00;;;;;;;10.30;2.07;;;6.10;99.90;;;;;;6226427;22;20023;-93
2023/01/14 07:37:26;;;;;;;4.77;1.13;;;6.10;99.90;;;;;;6226370;22;20020;-90
2023/01/14 07:39:52;;;;;;;7.70;2.23;;;6.10;99.90;;;;;;6251736;22;20274;-91
2023/01/14 07:42:18;;;;;;;6.03;1.50;;;6.10;99.90;;;;;;6277529;22;20020;-92
2023/01/14 07:44:44;;;;;;;7.80;1.42;;;6.10;99.90;;;;;;6252003;22;20026;-93
2023/01/14 07:47:15;;;;;;;11.73;2.00;;;6.10;99.90;;;;;;6251938;22;20098;-89
2023/01/14 07:49:41;;;;;;;11.30;1.90;;;6.10;99.90;;;;;;6227035;22;20113;-93
2023/01/14 07:52:07;;;;;;;8.80;1.80;;;6.10;99.90;;;;;;6226546;22;20022;-92
2023/01/14 07:54:33;;;;;;;6.97;1.80;;;6.10;99.90;;;;;;6251859;22;20020;-93
2023/01/14 07:56:59;;;;;;;7.45;1.73;;;6.10;99.90;;;;;;6251700;22;20020;-93
2023/01/14 07:59:25;;;;;;;7.45;1.40;;;6.10;99.90;;;;;;6251248;22;20103;-91
2023/01/14 08:01:51;;;;;;;7.13;1.23;;;6.10;99.90;;;;;;6251747;22;20099;-92
2023/01/14 08:04:17;;;;;;;7.00;1.90;;;6.10;99.90;;;;;;6252113;22;20120;-91
2023/01/14 08:06:43;;;;;;;5.57;1.40;;;6.10;99.90;;;;;;6226659;22;20019;-92
2023/01/14 08:09:09;;;;;;;15.33;1.73;;;6.10;99.90;;;;;;6250498;22;20337;-94
2023/01/14 08:11:36;;;;;;;9.63;1.60;;;6.10;99.90;;;;;;6251744;22;20250;-92
2023/01/14 08:14:02;;;;;;;7.57;1.73;;;6.10;99.90;;;;;;6252027;22;20098;-91
2023/01/14 08:16:28;;;;;;;7.15;1.40;;;6.20;99.90;;;;;;6251723;22;20016;-92
2023/01/14 08:18:54;;;;;;;6.53;1.20;;;6.20;99.90;;;;;;6226541;22;20046;-92
2023/01/14 08:21:19;;;;;;;10.30;1.67;;;6.20;99.90;;;;;;6251208;22;20023;-89
2023/01/14 08:23:45;;;;;;;8.70;1.60;;;6.20;99.90;;;;;;6251492;22;20075;-92
2023/01/14 08:26:13;;;;;;;10.70;1.73;;;6.20;99.90;;;;;;6249726;22;20326;-90
2023/01/14 08:28:40;;;;;;;10.55;1.88;;;6.20;99.90;;;;;;6250001;22;20051;-91
2023/01/14 08:31:07;;;;;;;5.63;1.65;;;6.20;99.90;;;;;;6251220;22;20011;-92
2023/01/14 08:33:34;;;;;;;9.20;2.05;;;6.20;99.90;;;;;;6251053;22;20012;-91
2023/01/14 08:36:06;;;;;;;9.35;1.40;;;6.20;99.90;;;;;;6251486;22;20022;-91
2023/01/14 08:38:44;;;;;;;5.20;1.45;;;6.20;99.90;;;;;;6226504;22;20023;-92
2023/01/14 08:41:15;;;;;;;8.57;1.60;;;6.20;99.90;;;;;;6251352;22;20026;-91
2023/01/14 08:43:42;;;;;;;8.07;1.27;;;6.30;99.90;;;;;;6251335;22;20012;-93
2023/01/14 08:46:09;;;;;;;3.40;1.00;;;6.30;99.90;;;;;;6251098;22;20073;-92
2023/01/14 08:48:36;;;;;;;10.68;1.20;;;6.20;99.90;;;;;;6251169;22;20012;-91
2023/01/14 08:51:08;;;;;;;5.38;1.15;;;6.30;99.90;;;;;;6225950;22;20015;-93
2023/01/14 08:53:37;;;;;;;10.32;1.33;;;6.30;99.90;;;;;;6251514;22;20499;-92
2023/01/14 08:56:05;;;;;;;10.02;1.35;;;6.30;99.90;;;;;;6226699;22;20027;-93
2023/01/14 08:58:34;;;;;;;8.57;1.45;;;6.30;99.90;;;;;;6225846;22;20023;-93
2023/01/14 09:01:06;;;;;;;6.85;1.58;;;6.30;99.90;;;;;;6250968;22;20016;-94
2023/01/14 09:04:06;;;;;;;10.70;1.30;;;6.30;99.90;;;;;;6251374;22;20349;-92
2023/01/14 09:17:04;;;;;;;5.32;1.00;;;6.30;99.90;;;;;;6250955;22;20015;-92
2023/01/14 09:17:42;;;;;;;7.28;1.30;;;6.30;99.90;;;;;;6276916;22;20345;-93
2023/01/14 09:20:34;;;;;;;5.70;1.33;;;6.30;99.90;;;;;;6276791;22;20098;-96
2023/01/14 09:23:31;;;;;;;3.22;0.68;;;6.30;99.90;;;;;;6252194;22;20016;-91
2023/01/14 09:25:58;;;;;;;6.22;1.00;;;6.30;99.90;;;;;;6250991;22;20015;-93
2023/01/14 09:28:27;;;;;;;5.22;1.00;;;6.30;99.90;;;;;;6278081;22;20019;-92
2023/01/14 09:30:55;;;;;;;4.82;0.98;;;6.30;99.90;;;;;;6250532;22;20023;-90
2023/01/14 09:33:21;;;;;;;5.43;0.87;;;6.30;99.90;;;;;;6276390;22;20012;-90
2023/01/14 09:35:47;;;;;;;4.60;1.23;;;6.20;99.90;;;;;;6250183;22;20091;-93
2023/01/14 09:38:13;;;;;;;7.07;1.07;;;6.30;99.90;;;;;;6251135;22;20019;-94
2023/01/14 09:40:40;;;;;;;10.23;1.47;;;6.20;99.90;;;;;;6251133;22;20441;-89
2023/01/14 09:43:13;;;;;;;;;;;6.20;99.90;;;;;;6251145;22;20019;-95
2023/01/14 09:46:19;;;;;;;6.88;1.27;;;6.20;99.90;;;;;;6251083;22;19919;-90
2023/01/14 09:48:47;;;;;;;3.22;0.70;;;6.20;99.90;;;;;;6257908;22;20099;-92
2023/01/14 09:51:38;;;;;;;4.90;1.10;;;6.20;99.90;;;;;;6280335;22;20081;-90
2023/01/14 09:54:10;;;;;;;7.75;1.10;;;6.20;99.90;;;;;;6307047;22;20029;-93
2023/01/14 09:56:57;;;;;;;3.58;0.88;;;6.20;99.90;;;;;;6256377;22;20034;-96
2023/01/14 09:59:54;;;;;;;5.47;1.20;;;6.20;99.90;;;;;;6286520;22;20034;-92
2023/01/14 10:02:40;;;;;;;3.63;1.00;;;6.20;99.90;;;;;;6252078;22;20019;-94
2023/01/14 10:05:22;;;;;;;3.17;0.88;;;6.20;99.90;;;;;;6280317;22;20027;-90
2023/01/14 10:07:55;;;;;;;3.60;1.20;;;6.30;99.90;;;;;;6254245;22;20520;-93
2023/01/14 10:10:25;;;;;;;3.55;0.70;;;6.30;99.90;;;;;;6254858;22;20007;-93
2023/01/14 10:13:21;;;;;;;;;;;;;;;;;;;;;
2023/01/14 10:16:19;;;;;;;7.07;0.90;;;6.30;99.90;;;;;;6266187;22;20022;-91
2023/01/14 10:48:02;;;;;;;4.53;2.22;;;6.50;99.90;;;;;;6309989;22;20023;-87
2023/01/14 10:50:28;;;;;;;3.08;0.90;;;6.50;99.90;;;;;;6256692;22;20109;-89
2023/01/14 10:53:12;;;;;;;3.30;0.85;;;6.50;99.90;;;;;;6258576;22;20426;-87
2023/01/14 10:55:48;;;;;;;2.88;0.40;;;6.60;99.90;;;;;;6265903;22;20020;-90
2023/01/14 10:58:17;;;;;;;1.40;0.50;;;6.60;99.90;;;;;;6259283;22;20019;-88
2023/01/14 11:00:50;;;;;;;6.10;1.48;;;6.60;99.90;;;;;;6263192;22;20015;-89
2023/01/14 11:03:27;;;;;;;1.90;0.70;;;6.70;99.90;;;;;;6286292;22;20420;-89
2023/01/14 11:06:08;;;;;;;2.78;1.40;;;6.70;99.90;;;;;;6268691;22;20322;-88
2023/01/14 11:08:51;;;;;;;1.95;0.70;;;6.70;99.90;;;;;;6264701;22;20105;-89
2023/01/14 11:11:38;;;;;;;3.50;0.57;;;6.70;99.90;;;;;;6289404;22;20015;-89
2023/01/14 11:14:28;;;;;;;2.25;0.40;;;6.70;99.90;;;;;;6292269;22;20015;-88
2023/01/14 11:16:56;;;;;;;1.92;0.30;;;6.80;99.90;;;;;;6269759;22;20015;-92
2023/01/14 11:19:34;;;;;;;2.45;0.70;;;6.80;99.90;;;;;;6273745;22;20070;-90
2023/01/14 11:22:02;;;;;;;0.95;0.32;;;6.80;99.90;;;;;;6264110;22;20018;-88
2023/01/14 11:24:40;;;;;;;0.63;0.30;;;6.90;99.90;;;;;;6294520;22;20049;-90
2023/01/14 11:30:02;;;;;;;1.35;0.30;;;6.90;99.90;;;;;;6328722;22;20022;-91
2023/01/14 11:32:35;;;;;;;2.17;0.57;;;6.90;99.90;;;;;;6320015;22;20030;-88
2023/01/14 11:35:06;;;;;;;2.50;0.40;;;6.90;99.90;;;;;;6300511;22;20047;-90
2023/01/14 11:37:48;;;;;;;3.83;0.50;;;6.90;99.90;;;;;;6320820;22;20490;-89
2023/01/14 11:43:37;;;;;;;2.40;0.50;;;6.90;99.90;;;;;;6331359;22;20025;-88
2023/01/14 11:51:20;;;;;;;1.83;0.32;;;7.00;99.90;;;;;;6260688;22;20020;-89
2023/01/14 11:53:49;;;;;;;0.95;0.40;;;7.00;99.90;;;;;;6182423;23;20030;-90
2023/01/14 11:56:37;;;;;;;1.73;0.60;;;7.00;99.90;;;;;;6211135;23;20020;-88
2023/01/14 11:59:36;;;;;;;4.60;0.70;;;7.00;99.90;;;;;;6208850;23;20016;-89
2023/01/14 12:02:24;;;;;;;1.35;0.38;;;7.00;99.90;;;;;;6205994;23;20046;-91
2023/01/14 12:05:15;;;;;;;3.42;0.50;;;7.00;99.90;;;;;;6228017;23;20072;-89
2023/01/14 12:07:57;;;;;;;1.42;0.85;;;7.00;99.90;;;;;;6258179;23;20016;-93
2023/01/14 12:10:46;;;;;;;1.23;0.45;;;7.00;99.90;;;;;;6213515;23;20131;-91
2023/01/14 12:19:12;;;;;;;1.38;0.57;;;7.00;99.90;;;;;;6226057;23;20020;-90
2023/01/14 12:37:16;;;;;;;1.33;0.40;;;7.10;99.90;;;;;;6324508;22;20007;-96
2023/01/14 12:50:21;;;;;;;1.15;0.45;;;7.30;99.90;;;;;;6322806;22;20023;-90
2023/01/14 12:52:53;;;;;;;1.90;0.70;;;7.30;99.90;;;;;;6247418;22;20023;-96
2023/01/14 13:03:21;;;;;;;1.20;0.30;;;7.40;99.90;;;;;;6321739;22;20027;-93
2023/01/14 13:05:47;;;;;;;0.88;0.40;;;7.40;99.90;;;;;;6275975;22;20019;-96
2023/01/14 16:58:43;;;;;;;1.67;0.60;;;10.10;99.90;;;;;;6311597;22;20014;-90
2023/01/14 17:01:08;;;;;;;1.20;0.50;;;10.10;99.90;;;;;;6257335;22;20023;-92
2023/01/14 17:04:14;;;;;;;3.07;1.00;;;10.10;99.90;;;;;;6231462;22;20102;-93
2023/01/14 17:06:42;;;;;;;0.95;0.43;;;10.10;99.90;;;;;;6281556;22;20080;-92
2023/01/14 17:09:41;;;;;;;1.60;0.55;;;10.10;99.90;;;;;;6256847;22;20105;-92
2023/01/14 17:44:51;;;;;;;3.25;0.95;;;10.30;99.90;;;;;;6314956;22;20015;-91
2023/01/14 17:47:20;;;;;;;2.92;1.20;;;10.30;99.90;;;;;;6288159;22;20015;-89
2023/01/14 18:54:12;;;;;;;3.38;0.60;;;9.40;99.90;;;;;;6307040;22;20027;-91
2023/01/14 18:56:38;;;;;;;4.77;0.90;;;9.40;99.90;;;;;;6255267;22;20054;-92
2023/01/14 18:59:04;;;;;;;3.87;1.10;;;9.30;99.90;;;;;;6253623;22;20348;-89
2023/01/14 19:01:51;;;;;;;1.65;0.60;;;9.30;99.90;;;;;;6257233;22;20436;-89
2023/01/14 19:04:39;;;;;;;1.60;0.60;;;9.20;99.90;;;;;;6254424;22;20012;-87
2023/01/14 19:07:05;;;;;;;1.65;0.77;;;9.20;99.90;;;;;;6256421;22;20012;-90
2023/01/14 19:09:31;;;;;;;2.25;0.55;;;9.10;99.90;;;;;;6256699;22;20045;-87
2023/01/14 19:12:03;;;;;;;4.80;0.93;;;9.10;99.90;;;;;;6254701;22;20038;-89
2023/01/14 19:14:30;;;;;;;3.55;1.10;;;9.10;99.90;;;;;;6279450;22;20019;-92
2023/01/14 20:07:58;;;;;;;4.38;1.27;;;7.40;99.90;;;;;;6307661;22;20039;-89
2023/01/14 20:10:30;;;;;;;5.00;1.70;;;7.40;99.90;;;;;;6256386;22;20051;-90
2023/01/14 20:13:05;;;;;;;5.78;2.55;;;7.30;99.90;;;;;;6256454;22;20019;-91
2023/01/14 20:15:56;;;;;;;5.75;1.73;;;7.30;99.90;;;;;;6282085;22;20322;-92
2023/01/14 20:18:25;;;;;;;10.23;3.45;;;7.20;99.90;;;;;;6256512;22;20341;-91
2023/01/14 20:20:56;;;;;;;10.32;3.05;;;7.20;99.90;;;;;;6281563;22;20015;-89
2023/01/14 20:23:22;;;;;;;2.90;0.75;;;7.20;99.90;;;;;;6256674;22;20053;-90
2023/01/14 20:25:49;;;;;;;1.33;0.60;;;7.20;99.90;;;;;;6231431;22;20007;-93
2023/01/14 20:28:19;;;;;;;2.55;0.40;;;7.10;99.90;;;;;;6231358;22;20164;-91
2023/01/14 20:30:53;;;;;;;1.95;0.30;;;7.10;99.90;;;;;;6255921;22;20022;-90
2023/01/14 20:33:28;;;;;;;1.52;0.30;;;7.10;99.90;;;;;;6256006;22;20020;-91
2023/01/14 20:36:03;;;;;;;1.08;0.28;;;7.00;99.90;;;;;;6230445;22;20043;-93
2023/01/14 20:41:24;;;;;;;1.00;0.10;;;7.00;99.90;;;;;;6110422;23;20024;-89
2023/01/14 20:43:52;;;;;;;1.07;0.30;;;7.00;99.90;;;;;;6263166;22;20050;-93
2023/01/14 20:46:25;;;;;;;1.30;0.10;;;7.00;99.90;;;;;;6255790;22;20464;-89
2023/01/14 20:48:53;;;;;;;1.00;0.25;;;6.90;99.90;;;;;;6255966;22;20456;-92
2023/01/14 20:51:24;;;;;;;1.35;0.20;;;6.90;99.90;;;;;;6231482;22;20050;-91
2023/01/14 20:53:49;;;;;;;3.30;0.20;;;6.90;99.90;;;;;;6256605;22;20149;-90
2023/01/14 20:56:18;;;;;;;1.47;0.20;;;6.90;99.90;;;;;;6256958;22;20014;-89
